Chapel Hill, Tennessee
Current Conditions -  °F | °C
As of 3:35 AM on Thursday 27 Nov 2014 (Local Time) from KSYI Reporting Station
Overcast Overcast  
Wind Chill: 32°   Ceiling: 2000
Heat Index: 39°   Visibility: 10mi
Dew Point: 36°   Wind: 10mph
Humidity: 87%   Direction: 290°WNW
Pressure: 30.16"   Gusts: NA
Location:  35.63°N, 86.69°W
Report Text: KSYI 270935Z AUTO 29009KT 10SM OVC020 04/02 A3016 RMK
Loading
Personal Weather Stations






























Interactive Weather Map New forecast layout! Learn more

10-Day Weather Forecast

Advertisements
Track Severe Weather on mobile